sensor_id;sensor_type;location;lat;lon;timestamp;temperature;humidity
23079;DHT22;11707;50.830;4.364;2023-04-10T00:00:20;12.90;45.00
23079;DHT22;11707;50.830;4.364;2023-04-10T00:02:45;13.00;1.00
23079;DHT22;11707;50.830;4.364;2023-04-10T00:05:14;13.00;99.90
23079;DHT22;11707;50.830;4.364;2023-04-10T00:07:41;13.00;99.90
23079;DHT22;11707;50.830;4.364;2023-04-10T00:10:06;12.80;99.90
23079;DHT22;11707;50.830;4.364;2023-04-10T00:12:35;12.80;99.90
23079;DHT22;11707;50.830;4.364;2023-04-10T00:15:02;12.80;99.90
23079;DHT22;11707;50.830;4.364;2023-04-10T00:17:28;12.70;99.90
23079;DHT22;11707;50.830;4.364;2023-04-10T00:19:54;12.60;99.90
23079;DHT22;11707;50.830;4.364;2023-04-10T00:22:23;12.70;1.00
23079;DHT22;11707;50.830;4.364;2023-04-10T00:24:51;12.70;96.90
23079;DHT22;11707;50.830;4.364;2023-04-10T00:27:19;12.50;99.90
23079;DHT22;11707;50.830;4.364;2023-04-10T00:29:45;12.40;1.00
23079;DHT22;11707;50.830;4.364;2023-04-10T00:32:10;12.30;99.90
23079;DHT22;11707;50.830;4.364;2023-04-10T00:34:36;12.40;99.90
23079;DHT22;11707;50.830;4.364;2023-04-10T00:37:04;12.30;99.90
23079;DHT22;11707;50.830;4.364;2023-04-10T00:39:32;12.20;99.90
23079;DHT22;11707;50.830;4.364;2023-04-10T00:41:57;12.10;1.00
23079;DHT22;11707;50.830;4.364;2023-04-10T00:44:27;12.10;1.00
23079;DHT22;11707;50.830;4.364;2023-04-10T00:46:52;12.00;1.00
23079;DHT22;11707;50.830;4.364;2023-04-10T00:49:18;11.90;37.50
23079;DHT22;11707;50.830;4.364;2023-04-10T00:51:44;11.90;9.30
23079;DHT22;11707;50.830;4.364;2023-04-10T00:54:10;11.90;1.00
23079;DHT22;11707;50.830;4.364;2023-04-10T00:56:39;11.80;1.00
23079;DHT22;11707;50.830;4.364;2023-04-10T00:59:04;11.80;9.40
23079;DHT22;11707;50.830;4.364;2023-04-10T01:01:30;11.70;92.70
23079;DHT22;11707;50.830;4.364;2023-04-10T01:03:56;11.80;1.00
23079;DHT22;11707;50.830;4.364;2023-04-10T01:09:19;11.70;43.50
23079;DHT22;11707;50.830;4.364;2023-04-10T01:11:58;11.70;99.90
23079;DHT22;11707;50.830;4.364;2023-04-10T01:14:37;11.60;71.80
23079;DHT22;11707;50.830;4.364;2023-04-10T01:17:28;11.80;1.00
23079;DHT22;11707;50.830;4.364;2023-04-10T01:20:11;11.80;99.90
23079;DHT22;11707;50.830;4.364;2023-04-10T01:22:45;11.70;99.90
23079;DHT22;11707;50.830;4.364;2023-04-10T01:28:20;11.70;47.40
23079;DHT22;11707;50.830;4.364;2023-04-10T01:30:58;11.50;99.90
23079;DHT22;11707;50.830;4.364;2023-04-10T01:33:41;11.60;28.80
23079;DHT22;11707;50.830;4.364;2023-04-10T01:36:10;11.60;1.00
23079;DHT22;11707;50.830;4.364;2023-04-10T01:38:39;11.60;99.90
23079;DHT22;11707;50.830;4.364;2023-04-10T01:41:07;11.70;99.90
23079;DHT22;11707;50.830;4.364;2023-04-10T01:43:33;11.70;99.90
23079;DHT22;11707;50.830;4.364;2023-04-10T01:46:01;11.80;17.50
23079;DHT22;11707;50.830;4.364;2023-04-10T01:48:28;11.70;70.30
23079;DHT22;11707;50.830;4.364;2023-04-10T01:51:01;11.80;1.00
23079;DHT22;11707;50.830;4.364;2023-04-10T01:53:28;11.70;1.00
23079;DHT22;11707;50.830;4.364;2023-04-10T01:55:55;11.60;95.70
23079;DHT22;11707;50.830;4.364;2023-04-10T01:58:20;11.60;42.60
23079;DHT22;11707;50.830;4.364;2023-04-10T02:00:49;11.70;1.00
23079;DHT22;11707;50.830;4.364;2023-04-10T02:03:15;11.80;99.90
23079;DHT22;11707;50.830;4.364;2023-04-10T02:08:39;11.70;99.90
23079;DHT22;11707;50.830;4.364;2023-04-10T02:13:38;11.70;99.90
23079;DHT22;11707;50.830;4.364;2023-04-10T02:16:06;11.70;99.90
23079;DHT22;11707;50.830;4.364;2023-04-10T02:18:40;11.50;99.90
23079;DHT22;11707;50.830;4.364;2023-04-10T02:21:06;11.50;99.90
23079;DHT22;11707;50.830;4.364;2023-04-10T02:23:35;11.60;99.90
23079;DHT22;11707;50.830;4.364;2023-04-10T02:26:08;11.60;99.90
23079;DHT22;11707;50.830;4.364;2023-04-10T02:28:36;11.60;99.90
23079;DHT22;11707;50.830;4.364;2023-04-10T02:31:02;11.50;99.90
23079;DHT22;11707;50.830;4.364;2023-04-10T02:33:28;11.50;99.90
23079;DHT22;11707;50.830;4.364;2023-04-10T02:35:53;11.50;99.90
23079;DHT22;11707;50.830;4.364;2023-04-10T02:38:19;11.60;9.30
23079;DHT22;11707;50.830;4.364;2023-04-10T02:40:45;11.60;1.00
23079;DHT22;11707;50.830;4.364;2023-04-10T02:43:11;11.50;1.00
23079;DHT22;11707;50.830;4.364;2023-04-10T02:45:37;11.40;51.30
23079;DHT22;11707;50.830;4.364;2023-04-10T02:48:04;11.30;99.90
23079;DHT22;11707;50.830;4.364;2023-04-10T02:50:30;11.40;99.90
23079;DHT22;11707;50.830;4.364;2023-04-10T02:52:58;11.40;77.90
23079;DHT22;11707;50.830;4.364;2023-04-10T02:55:29;11.40;14.70
23079;DHT22;11707;50.830;4.364;2023-04-10T02:57:57;11.50;1.00
23079;DHT22;11707;50.830;4.364;2023-04-10T03:00:23;11.40;1.00
23079;DHT22;11707;50.830;4.364;2023-04-10T03:02:48;11.40;1.00
23079;DHT22;11707;50.830;4.364;2023-04-10T03:05:14;11.50;1.00
23079;DHT22;11707;50.830;4.364;2023-04-10T03:07:40;11.50;99.90
23079;DHT22;11707;50.830;4.364;2023-04-10T03:10:06;11.40;99.90
23079;DHT22;11707;50.830;4.364;2023-04-10T03:12:32;11.30;1.00
23079;DHT22;11707;50.830;4.364;2023-04-10T03:14:57;11.40;1.00
23079;DHT22;11707;50.830;4.364;2023-04-10T03:17:23;11.30;1.00
23079;DHT22;11707;50.830;4.364;2023-04-10T03:19:49;11.30;1.00
23079;DHT22;11707;50.830;4.364;2023-04-10T03:22:16;11.30;1.00
23079;DHT22;11707;50.830;4.364;2023-04-10T03:24:44;11.30;99.90
23079;DHT22;11707;50.830;4.364;2023-04-10T03:27:10;11.30;99.90
23079;DHT22;11707;50.830;4.364;2023-04-10T03:29:35;11.30;99.90
23079;DHT22;11707;50.830;4.364;2023-04-10T03:32:01;11.20;99.90
23079;DHT22;11707;50.830;4.364;2023-04-10T03:34:27;11.20;1.00
23079;DHT22;11707;50.830;4.364;2023-04-10T03:36:52;11.30;99.90
23079;DHT22;11707;50.830;4.364;2023-04-10T03:39:18;11.30;99.90
23079;DHT22;11707;50.830;4.364;2023-04-10T03:41:43;11.40;99.90
23079;DHT22;11707;50.830;4.364;2023-04-10T03:44:12;11.40;99.90
23079;DHT22;11707;50.830;4.364;2023-04-10T03:46:40;11.30;99.90
23079;DHT22;11707;50.830;4.364;2023-04-10T03:49:05;11.30;99.90
23079;DHT22;11707;50.830;4.364;2023-04-10T03:51:31;11.30;99.90
23079;DHT22;11707;50.830;4.364;2023-04-10T03:53:57;11.30;99.90
23079;DHT22;11707;50.830;4.364;2023-04-10T03:56:22;11.30;99.90
23079;DHT22;11707;50.830;4.364;2023-04-10T03:58:50;11.30;99.90
23079;DHT22;11707;50.830;4.364;2023-04-10T04:01:19;11.20;99.90
23079;DHT22;11707;50.830;4.364;2023-04-10T04:03:46;11.20;99.90
23079;DHT22;11707;50.830;4.364;2023-04-10T04:06:14;11.20;99.90
23079;DHT22;11707;50.830;4.364;2023-04-10T04:08:40;11.20;99.90
23079;DHT22;11707;50.830;4.364;2023-04-10T04:11:06;11.20;99.90
23079;DHT22;11707;50.830;4.364;2023-04-10T04:13:34;11.10;99.90
23079;DHT22;11707;50.830;4.364;2023-04-10T04:16:00;11.20;99.90
23079;DHT22;11707;50.830;4.364;2023-04-10T04:18:25;11.30;99.90
23079;DHT22;11707;50.830;4.364;2023-04-10T04:20:53;11.20;99.90
23079;DHT22;11707;50.830;4.364;2023-04-10T04:23:19;11.20;99.90
23079;DHT22;11707;50.830;4.364;2023-04-10T04:25:45;11.10;99.90
23079;DHT22;11707;50.830;4.364;2023-04-10T04:28:13;11.10;99.90
23079;DHT22;11707;50.830;4.364;2023-04-10T04:30:40;11.30;99.90
23079;DHT22;11707;50.830;4.364;2023-04-10T04:33:06;11.30;97.80
23079;DHT22;11707;50.830;4.364;2023-04-10T04:35:31;11.20;99.90
23079;DHT22;11707;50.830;4.364;2023-04-10T04:37:57;11.20;99.90
23079;DHT22;11707;50.830;4.364;2023-04-10T04:40:23;11.20;99.90
23079;DHT22;11707;50.830;4.364;2023-04-10T04:42:48;11.30;99.90
23079;DHT22;11707;50.830;4.364;2023-04-10T04:45:17;11.30;40.40
23079;DHT22;11707;50.830;4.364;2023-04-10T04:47:43;11.30;8.40
23079;DHT22;11707;50.830;4.364;2023-04-10T04:50:08;11.20;1.00
23079;DHT22;11707;50.830;4.364;2023-04-10T04:52:34;11.20;46.20
23079;DHT22;11707;50.830;4.364;2023-04-10T04:55:00;11.30;1.00
23079;DHT22;11707;50.830;4.364;2023-04-10T04:57:25;11.30;1.00
23079;DHT22;11707;50.830;4.364;2023-04-10T04:59:51;11.20;1.00
23079;DHT22;11707;50.830;4.364;2023-04-10T05:02:21;11.20;1.00
23079;DHT22;11707;50.830;4.364;2023-04-10T05:04:47;11.20;29.30
23079;DHT22;11707;50.830;4.364;2023-04-10T05:07:13;11.10;99.90
23079;DHT22;11707;50.830;4.364;2023-04-10T05:09:39;11.30;1.00
23079;DHT22;11707;50.830;4.364;2023-04-10T05:12:07;11.40;1.00
23079;DHT22;11707;50.830;4.364;2023-04-10T05:14:32;11.30;1.00
23079;DHT22;11707;50.830;4.364;2023-04-10T05:17:02;11.40;1.00
23079;DHT22;11707;50.830;4.364;2023-04-10T05:19:30;11.30;1.00
23079;DHT22;11707;50.830;4.364;2023-04-10T05:21:56;11.30;1.00
23079;DHT22;11707;50.830;4.364;2023-04-10T05:24:22;11.20;1.00
23079;DHT22;11707;50.830;4.364;2023-04-10T05:26:50;11.10;99.90
23079;DHT22;11707;50.830;4.364;2023-04-10T05:29:16;11.00;99.90
23079;DHT22;11707;50.830;4.364;2023-04-10T05:31:41;11.00;99.90
23079;DHT22;11707;50.830;4.364;2023-04-10T05:34:07;11.00;99.90
23079;DHT22;11707;50.830;4.364;2023-04-10T05:36:33;11.10;99.90
23079;DHT22;11707;50.830;4.364;2023-04-10T05:38:59;11.10;99.90
23079;DHT22;11707;50.830;4.364;2023-04-10T05:41:27;11.20;99.90
23079;DHT22;11707;50.830;4.364;2023-04-10T05:43:55;11.20;99.90
23079;DHT22;11707;50.830;4.364;2023-04-10T05:46:21;11.10;99.90
23079;DHT22;11707;50.830;4.364;2023-04-10T05:48:47;11.30;94.50
23079;DHT22;11707;50.830;4.364;2023-04-10T05:51:13;11.40;1.00
23079;DHT22;11707;50.830;4.364;2023-04-10T05:53:38;11.50;1.00
23079;DHT22;11707;50.830;4.364;2023-04-10T05:56:05;11.60;1.00
23079;DHT22;11707;50.830;4.364;2023-04-10T05:58:30;11.50;99.90
23079;DHT22;11707;50.830;4.364;2023-04-10T06:00:56;11.50;99.90
23079;DHT22;11707;50.830;4.364;2023-04-10T06:03:22;11.60;99.90
23079;DHT22;11707;50.830;4.364;2023-04-10T06:05:48;11.70;99.90
23079;DHT22;11707;50.830;4.364;2023-04-10T06:08:13;11.70;99.90
23079;DHT22;11707;50.830;4.364;2023-04-10T06:10:39;11.70;99.90
23079;DHT22;11707;50.830;4.364;2023-04-10T06:13:05;11.50;99.90
23079;DHT22;11707;50.830;4.364;2023-04-10T06:15:31;11.30;99.90
23079;DHT22;11707;50.830;4.364;2023-04-10T06:17:56;11.30;99.90
23079;DHT22;11707;50.830;4.364;2023-04-10T06:20:22;11.40;99.90
23079;DHT22;11707;50.830;4.364;2023-04-10T06:22:48;11.40;99.90
23079;DHT22;11707;50.830;4.364;2023-04-10T06:25:13;11.40;99.90
23079;DHT22;11707;50.830;4.364;2023-04-10T06:27:41;11.40;1.00
23079;DHT22;11707;50.830;4.364;2023-04-10T06:30:09;11.20;1.00
23079;DHT22;11707;50.830;4.364;2023-04-10T06:32:37;11.30;1.00
23079;DHT22;11707;50.830;4.364;2023-04-10T06:35:02;11.30;1.00
23079;DHT22;11707;50.830;4.364;2023-04-10T06:37:29;11.30;1.00
23079;DHT22;11707;50.830;4.364;2023-04-10T06:40:09;11.40;1.00
23079;DHT22;11707;50.830;4.364;2023-04-10T06:42:37;11.40;1.00
23079;DHT22;11707;50.830;4.364;2023-04-10T06:45:04;11.40;57.60
23079;DHT22;11707;50.830;4.364;2023-04-10T06:47:30;11.40;15.30
23079;DHT22;11707;50.830;4.364;2023-04-10T06:49:58;11.40;4.90
23079;DHT22;11707;50.830;4.364;2023-04-10T06:52:24;11.40;31.80
23079;DHT22;11707;50.830;4.364;2023-04-10T06:54:50;11.40;99.90
23079;DHT22;11707;50.830;4.364;2023-04-10T06:57:16;11.30;99.90
23079;DHT22;11707;50.830;4.364;2023-04-10T06:59:43;11.40;99.90
23079;DHT22;11707;50.830;4.364;2023-04-10T07:02:09;11.40;99.90
23079;DHT22;11707;50.830;4.364;2023-04-10T07:04:34;11.40;99.90
23079;DHT22;11707;50.830;4.364;2023-04-10T07:07:04;11.60;99.90
23079;DHT22;11707;50.830;4.364;2023-04-10T07:09:34;11.50;99.90
23079;DHT22;11707;50.830;4.364;2023-04-10T07:12:00;11.50;99.90
23079;DHT22;11707;50.830;4.364;2023-04-10T07:14:25;11.60;99.90
23079;DHT22;11707;50.830;4.364;2023-04-10T07:16:51;11.60;99.90
23079;DHT22;11707;50.830;4.364;2023-04-10T07:19:18;11.60;99.90
23079;DHT22;11707;50.830;4.364;2023-04-10T07:21:44;11.70;99.90
23079;DHT22;11707;50.830;4.364;2023-04-10T07:24:10;11.90;99.90
23079;DHT22;11707;50.830;4.364;2023-04-10T07:26:37;12.10;99.90
23079;DHT22;11707;50.830;4.364;2023-04-10T07:29:03;12.10;10.50
23079;DHT22;11707;50.830;4.364;2023-04-10T07:31:29;12.10;1.00
23079;DHT22;11707;50.830;4.364;2023-04-10T07:33:55;12.00;99.90
23079;DHT22;11707;50.830;4.364;2023-04-10T07:36:22;11.90;99.90
23079;DHT22;11707;50.830;4.364;2023-04-10T07:38:48;11.90;99.90
23079;DHT22;11707;50.830;4.364;2023-04-10T07:41:16;11.90;99.90
23079;DHT22;11707;50.830;4.364;2023-04-10T07:43:46;12.00;99.90
23079;DHT22;11707;50.830;4.364;2023-04-10T07:46:12;12.10;99.90
23079;DHT22;11707;50.830;4.364;2023-04-10T07:48:38;12.10;99.90
23079;DHT22;11707;50.830;4.364;2023-04-10T07:51:04;12.00;1.00
23079;DHT22;11707;50.830;4.364;2023-04-10T07:53:33;11.80;14.70
23079;DHT22;11707;50.830;4.364;2023-04-10T07:55:59;11.80;99.90
23079;DHT22;11707;50.830;4.364;2023-04-10T07:58:25;11.90;99.90
23079;DHT22;11707;50.830;4.364;2023-04-10T08:00:51;12.10;99.90
23079;DHT22;11707;50.830;4.364;2023-04-10T08:03:19;12.20;99.90
23079;DHT22;11707;50.830;4.364;2023-04-10T08:05:45;12.20;99.90
23079;DHT22;11707;50.830;4.364;2023-04-10T08:08:10;12.20;99.90
23079;DHT22;11707;50.830;4.364;2023-04-10T08:10:37;12.10;99.90
23079;DHT22;11707;50.830;4.364;2023-04-10T08:13:03;12.30;99.90
23079;DHT22;11707;50.830;4.364;2023-04-10T08:15:29;12.30;1.00
23079;DHT22;11707;50.830;4.364;2023-04-10T08:17:55;12.40;99.90
23079;DHT22;11707;50.830;4.364;2023-04-10T08:20:21;12.50;99.90
23079;DHT22;11707;50.830;4.364;2023-04-10T08:22:49;12.50;99.90
23079;DHT22;11707;50.830;4.364;2023-04-10T08:25:17;12.50;99.90
23079;DHT22;11707;50.830;4.364;2023-04-10T08:27:43;12.40;99.90
23079;DHT22;11707;50.830;4.364;2023-04-10T08:30:09;12.60;99.90
23079;DHT22;11707;50.830;4.364;2023-04-10T08:32:37;12.60;99.90
23079;DHT22;11707;50.830;4.364;2023-04-10T08:35:04;12.60;1.00
23079;DHT22;11707;50.830;4.364;2023-04-10T08:37:32;12.60;1.00
23079;DHT22;11707;50.830;4.364;2023-04-10T08:39:57;12.70;1.00
23079;DHT22;11707;50.830;4.364;2023-04-10T08:42:23;12.80;1.00
23079;DHT22;11707;50.830;4.364;2023-04-10T08:44:50;13.00;99.90
23079;DHT22;11707;50.830;4.364;2023-04-10T08:47:20;12.90;99.90
23079;DHT22;11707;50.830;4.364;2023-04-10T08:52:20;13.30;99.90
23079;DHT22;11707;50.830;4.364;2023-04-10T08:54:52;13.30;99.90
23079;DHT22;11707;50.830;4.364;2023-04-10T08:57:18;13.30;99.90
23079;DHT22;11707;50.830;4.364;2023-04-10T08:59:46;13.20;99.90
23079;DHT22;11707;50.830;4.364;2023-04-10T09:02:12;13.10;99.90
23079;DHT22;11707;50.830;4.364;2023-04-10T09:04:37;13.00;1.00
23079;DHT22;11707;50.830;4.364;2023-04-10T09:07:03;13.10;7.70
23079;DHT22;11707;50.830;4.364;2023-04-10T09:09:32;13.10;1.00
23079;DHT22;11707;50.830;4.364;2023-04-10T09:12:01;13.30;1.00
23079;DHT22;11707;50.830;4.364;2023-04-10T09:14:32;13.50;99.90
23079;DHT22;11707;50.830;4.364;2023-04-10T09:17:19;13.70;99.90
23079;DHT22;11707;50.830;4.364;2023-04-10T09:19:52;13.80;99.90
23079;DHT22;11707;50.830;4.364;2023-04-10T09:22:29;13.50;99.90
23079;DHT22;11707;50.830;4.364;2023-04-10T09:24:55;13.60;99.90
23079;DHT22;11707;50.830;4.364;2023-04-10T09:27:34;13.60;99.90
23079;DHT22;11707;50.830;4.364;2023-04-10T09:30:04;13.80;99.90
23079;DHT22;11707;50.830;4.364;2023-04-10T09:32:44;13.70;99.90
23079;DHT22;11707;50.830;4.364;2023-04-10T09:35:14;13.90;99.90
23079;DHT22;11707;50.830;4.364;2023-04-10T09:37:45;14.00;99.90
23079;DHT22;11707;50.830;4.364;2023-04-10T09:40:22;14.00;99.90
23079;DHT22;11707;50.830;4.364;2023-04-10T09:42:49;14.10;99.90
23079;DHT22;11707;50.830;4.364;2023-04-10T09:45:15;14.10;66.90
23079;DHT22;11707;50.830;4.364;2023-04-10T09:48:14;14.00;99.90
23079;DHT22;11707;50.830;4.364;2023-04-10T09:50:40;14.10;99.90
23079;DHT22;11707;50.830;4.364;2023-04-10T09:53:14;14.40;99.90
23079;DHT22;11707;50.830;4.364;2023-04-10T09:55:41;14.60;1.00
23079;DHT22;11707;50.830;4.364;2023-04-10T09:58:07;14.70;1.00
23079;DHT22;11707;50.830;4.364;2023-04-10T10:00:44;14.60;99.90
23079;DHT22;11707;50.830;4.364;2023-04-10T10:03:15;14.80;99.90
23079;DHT22;11707;50.830;4.364;2023-04-10T10:05:43;15.00;99.90
23079;DHT22;11707;50.830;4.364;2023-04-10T10:08:12;15.20;99.90
23079;DHT22;11707;50.830;4.364;2023-04-10T10:10:43;15.30;1.00
23079;DHT22;11707;50.830;4.364;2023-04-10T10:13:14;15.30;1.00
23079;DHT22;11707;50.830;4.364;2023-04-10T10:18:46;15.70;99.90
23079;DHT22;11707;50.830;4.364;2023-04-10T10:21:16;15.70;99.90
23079;DHT22;11707;50.830;4.364;2023-04-10T10:23:47;15.80;99.90
23079;DHT22;11707;50.830;4.364;2023-04-10T10:26:18;15.90;35.60
23079;DHT22;11707;50.830;4.364;2023-04-10T10:28:46;15.90;65.50
23079;DHT22;11707;50.830;4.364;2023-04-10T10:31:12;16.10;1.00
23079;DHT22;11707;50.830;4.364;2023-04-10T10:33:41;16.20;1.00
23079;DHT22;11707;50.830;4.364;2023-04-10T10:36:07;16.40;99.90
23079;DHT22;11707;50.830;4.364;2023-04-10T10:38:38;16.30;99.90
23079;DHT22;11707;50.830;4.364;2023-04-10T10:41:12;16.40;99.90
23079;DHT22;11707;50.830;4.364;2023-04-10T10:46:23;16.50;99.90
23079;DHT22;11707;50.830;4.364;2023-04-10T10:48:58;16.60;1.00
23079;DHT22;11707;50.830;4.364;2023-04-10T10:51:49;16.40;99.90
23079;DHT22;11707;50.830;4.364;2023-04-10T10:54:33;16.40;1.00
23079;DHT22;11707;50.830;4.364;2023-04-10T10:57:01;16.70;1.00
23079;DHT22;11707;50.830;4.364;2023-04-10T11:02:18;16.90;99.90
23079;DHT22;11707;50.830;4.364;2023-04-10T11:04:45;16.60;99.90
23079;DHT22;11707;50.830;4.364;2023-04-10T11:07:12;16.60;99.90
23079;DHT22;11707;50.830;4.364;2023-04-10T11:12:11;16.60;99.90
23079;DHT22;11707;50.830;4.364;2023-04-10T11:14:38;16.80;99.90
23079;DHT22;11707;50.830;4.364;2023-04-10T11:17:04;16.80;99.90
23079;DHT22;11707;50.830;4.364;2023-04-10T11:19:56;16.80;99.90
23079;DHT22;11707;50.830;4.364;2023-04-10T11:22:23;16.70;99.90
23079;DHT22;11707;50.830;4.364;2023-04-10T11:24:59;16.80;99.90
23079;DHT22;11707;50.830;4.364;2023-04-10T11:27:45;16.70;99.90
23079;DHT22;11707;50.830;4.364;2023-04-10T11:30:29;16.70;99.90
23079;DHT22;11707;50.830;4.364;2023-04-10T11:32:56;16.80;71.30
23079;DHT22;11707;50.830;4.364;2023-04-10T11:35:25;16.80;72.30
23079;DHT22;11707;50.830;4.364;2023-04-10T11:38:11;16.90;29.80
23079;DHT22;11707;50.830;4.364;2023-04-10T11:40:52;16.90;1.00
23079;DHT22;11707;50.830;4.364;2023-04-10T11:43:21;16.80;1.00
23079;DHT22;11707;50.830;4.364;2023-04-10T11:45:47;16.90;52.50
23079;DHT22;11707;50.830;4.364;2023-04-10T11:48:14;16.80;51.00
23079;DHT22;11707;50.830;4.364;2023-04-10T11:50:41;16.60;52.80
23079;DHT22;11707;50.830;4.364;2023-04-10T11:53:20;16.70;99.90
23079;DHT22;11707;50.830;4.364;2023-04-10T11:55:46;16.70;99.90
23079;DHT22;11707;50.830;4.364;2023-04-10T11:58:29;16.70;99.90
23079;DHT22;11707;50.830;4.364;2023-04-10T12:01:04;16.70;99.90
23079;DHT22;11707;50.830;4.364;2023-04-10T12:03:40;16.90;99.90
23079;DHT22;11707;50.830;4.364;2023-04-10T12:06:11;17.00;86.50
23079;DHT22;11707;50.830;4.364;2023-04-10T12:08:42;17.00;92.60
23079;DHT22;11707;50.830;4.364;2023-04-10T12:11:09;16.90;96.80
23079;DHT22;11707;50.830;4.364;2023-04-10T12:13:35;16.80;99.90
23079;DHT22;11707;50.830;4.364;2023-04-10T12:16:08;16.90;66.90
23079;DHT22;11707;50.830;4.364;2023-04-10T12:18:34;17.00;50.40
23079;DHT22;11707;50.830;4.364;2023-04-10T12:21:03;17.00;90.20
23079;DHT22;11707;50.830;4.364;2023-04-10T12:23:30;16.90;15.70
23079;DHT22;11707;50.830;4.364;2023-04-10T12:26:17;17.00;32.80
23079;DHT22;11707;50.830;4.364;2023-04-10T12:28:56;17.00;1.00
23079;DHT22;11707;50.830;4.364;2023-04-10T12:31:41;17.00;1.00
23079;DHT22;11707;50.830;4.364;2023-04-10T12:34:07;17.10;1.00
23079;DHT22;11707;50.830;4.364;2023-04-10T12:36:34;17.30;99.90
23079;DHT22;11707;50.830;4.364;2023-04-10T12:39:01;17.40;99.90
23079;DHT22;11707;50.830;4.364;2023-04-10T12:41:30;17.40;99.90
23079;DHT22;11707;50.830;4.364;2023-04-10T12:44:07;17.40;99.90
23079;DHT22;11707;50.830;4.364;2023-04-10T12:46:33;17.00;99.90
23079;DHT22;11707;50.830;4.364;2023-04-10T12:49:12;17.00;1.00
23079;DHT22;11707;50.830;4.364;2023-04-10T12:51:47;16.80;78.50
23079;DHT22;11707;50.830;4.364;2023-04-10T12:54:33;16.60;99.90
23079;DHT22;11707;50.830;4.364;2023-04-10T12:57:02;16.30;56.60
23079;DHT22;11707;50.830;4.364;2023-04-10T12:59:31;16.10;1.00
23079;DHT22;11707;50.830;4.364;2023-04-10T13:01:57;15.80;99.90
23079;DHT22;11707;50.830;4.364;2023-04-10T13:04:22;15.60;99.90
23079;DHT22;11707;50.830;4.364;2023-04-10T13:06:51;15.60;99.90
23079;DHT22;11707;50.830;4.364;2023-04-10T13:09:17;15.50;99.90
23079;DHT22;11707;50.830;4.364;2023-04-10T13:11:43;15.60;99.90
23079;DHT22;11707;50.830;4.364;2023-04-10T13:14:08;15.60;99.90
23079;DHT22;11707;50.830;4.364;2023-04-10T13:16:35;15.70;99.90
23079;DHT22;11707;50.830;4.364;2023-04-10T13:19:01;15.80;99.90
23079;DHT22;11707;50.830;4.364;2023-04-10T13:21:27;15.70;99.90
23079;DHT22;11707;50.830;4.364;2023-04-10T13:23:54;15.70;99.90
23079;DHT22;11707;50.830;4.364;2023-04-10T13:26:23;15.60;99.90
23079;DHT22;11707;50.830;4.364;2023-04-10T13:28:49;15.80;1.00
23079;DHT22;11707;50.830;4.364;2023-04-10T13:31:15;15.90;1.00
23079;DHT22;11707;50.830;4.364;2023-04-10T13:33:45;15.90;99.90
23079;DHT22;11707;50.830;4.364;2023-04-10T13:36:14;16.00;1.00
23079;DHT22;11707;50.830;4.364;2023-04-10T13:38:40;15.90;99.90
23079;DHT22;11707;50.830;4.364;2023-04-10T13:41:09;16.00;99.90
23079;DHT22;11707;50.830;4.364;2023-04-10T13:43:35;16.00;44.50
23079;DHT22;11707;50.830;4.364;2023-04-10T13:46:01;16.20;99.90
23079;DHT22;11707;50.830;4.364;2023-04-10T13:48:27;16.50;44.80
23079;DHT22;11707;50.830;4.364;2023-04-10T13:50:57;16.50;1.00
23079;DHT22;11707;50.830;4.364;2023-04-10T13:53:23;16.60;99.90
23079;DHT22;11707;50.830;4.364;2023-04-10T13:55:49;16.70;29.70
23079;DHT22;11707;50.830;4.364;2023-04-10T13:58:15;16.80;99.90
23079;DHT22;11707;50.830;4.364;2023-04-10T14:00:42;16.80;99.90
23079;DHT22;11707;50.830;4.364;2023-04-10T14:03:09;16.90;99.90
23079;DHT22;11707;50.830;4.364;2023-04-10T14:05:39;16.90;34.70
23079;DHT22;11707;50.830;4.364;2023-04-10T14:08:07;16.80;1.00
23079;DHT22;11707;50.830;4.364;2023-04-10T14:10:36;16.80;19.80
23079;DHT22;11707;50.830;4.364;2023-04-10T14:13:04;17.00;1.00
23079;DHT22;11707;50.830;4.364;2023-04-10T14:15:31;16.90;1.00
23079;DHT22;11707;50.830;4.364;2023-04-10T14:17:56;16.90;22.30
23079;DHT22;11707;50.830;4.364;2023-04-10T14:20:22;16.70;49.30
23079;DHT22;11707;50.830;4.364;2023-04-10T14:22:48;16.80;1.00
23079;DHT22;11707;50.830;4.364;2023-04-10T14:25:13;16.90;6.00
23079;DHT22;11707;50.830;4.364;2023-04-10T14:27:42;16.70;1.00
23079;DHT22;11707;50.830;4.364;2023-04-10T14:30:10;16.70;1.00
23079;DHT22;11707;50.830;4.364;2023-04-10T14:32:39;16.70;87.90
23079;DHT22;11707;50.830;4.364;2023-04-10T14:35:05;16.80;99.90
23079;DHT22;11707;50.830;4.364;2023-04-10T14:37:30;16.80;99.90
23079;DHT22;11707;50.830;4.364;2023-04-10T14:39:57;16.60;99.90
23079;DHT22;11707;50.830;4.364;2023-04-10T14:42:22;16.30;99.90
23079;DHT22;11707;50.830;4.364;2023-04-10T14:44:51;16.10;27.60
23079;DHT22;11707;50.830;4.364;2023-04-10T14:47:16;15.70;51.30
23079;DHT22;11707;50.830;4.364;2023-04-10T14:49:42;15.30;99.90
23079;DHT22;11707;50.830;4.364;2023-04-10T14:52:08;15.10;99.90
23079;DHT22;11707;50.830;4.364;2023-04-10T14:54:33;14.70;1.00
23079;DHT22;11707;50.830;4.364;2023-04-10T14:56:59;14.60;1.00
23079;DHT22;11707;50.830;4.364;2023-04-10T14:59:26;14.40;1.00
23079;DHT22;11707;50.830;4.364;2023-04-10T15:01:52;14.30;1.00
23079;DHT22;11707;50.830;4.364;2023-04-10T15:04:18;14.20;1.00
23079;DHT22;11707;50.830;4.364;2023-04-10T15:06:44;14.00;1.00
23079;DHT22;11707;50.830;4.364;2023-04-10T15:09:10;14.00;3.70
23079;DHT22;11707;50.830;4.364;2023-04-10T15:11:36;14.00;7.50
23079;DHT22;11707;50.830;4.364;2023-04-10T15:14:01;13.90;18.40
23079;DHT22;11707;50.830;4.364;2023-04-10T15:16:29;14.00;23.20
23079;DHT22;11707;50.830;4.364;2023-04-10T15:18:55;14.10;14.40
23079;DHT22;11707;50.830;4.364;2023-04-10T15:21:21;14.00;13.60
23079;DHT22;11707;50.830;4.364;2023-04-10T15:23:51;14.00;18.30
23079;DHT22;11707;50.830;4.364;2023-04-10T15:26:17;14.00;20.90
23079;DHT22;11707;50.830;4.364;2023-04-10T15:28:43;14.00;26.70
23079;DHT22;11707;50.830;4.364;2023-04-10T15:31:09;13.80;38.50
23079;DHT22;11707;50.830;4.364;2023-04-10T15:33:35;13.80;40.00
23079;DHT22;11707;50.830;4.364;2023-04-10T15:36:03;13.70;50.30
23079;DHT22;11707;50.830;4.364;2023-04-10T15:38:30;13.50;66.10
23079;DHT22;11707;50.830;4.364;2023-04-10T15:40:57;13.20;90.80
23079;DHT22;11707;50.830;4.364;2023-04-10T15:43:23;13.10;97.50
23079;DHT22;11707;50.830;4.364;2023-04-10T15:45:48;13.00;99.90
23079;DHT22;11707;50.830;4.364;2023-04-10T15:48:14;12.90;99.90
23079;DHT22;11707;50.830;4.364;2023-04-10T15:50:42;12.90;99.90
23079;DHT22;11707;50.830;4.364;2023-04-10T15:53:08;12.60;99.90
23079;DHT22;11707;50.830;4.364;2023-04-10T15:55:40;12.40;99.90
23079;DHT22;11707;50.830;4.364;2023-04-10T15:58:09;12.30;99.90
23079;DHT22;11707;50.830;4.364;2023-04-10T16:00:35;12.30;99.90
23079;DHT22;11707;50.830;4.364;2023-04-10T16:03:00;12.30;99.90
23079;DHT22;11707;50.830;4.364;2023-04-10T16:05:26;12.00;99.90